Fulmar — WDD3992 — position and weather

sailwx.info

Track history (hours):
 
Tides and Currents Weather Stations Pressure Air Temp Water Temp Dewpoint Dewpoint Depression Visibility Wind Speed Wind Dir Waves Ship Positions

Oceanographic research ship Fulmar (United States)

Owner: NOAA R/V Fulmar, Monterey, CA. More information available from US FCC via Universal Licensing System.

Last reported at 2019-Oct-27 02:30 UTC. Time now 2019-Dec-11 10:41 UTC.
Position N 34°14' W 119°24'.
Warning: this ship's position is 45 days out of date.

Length 20 m; draft 2 m.

Type: Ship. MMSI: 367139040.

Date/timePositionNaut miles runAvg speedWind from/ knotsBaromVisibWave heightAir tempDewpointWater temp
2019-Oct-27 02:30N 34°14' W 119°24'1019.6
2019-Oct-27 02:00N 34°15' W 119°36'1019.3
2019-Oct-27 01:30N 34°15' W 119°48'1019.6
2019-Oct-27 01:00N 34°15' W 119°59'611.1
2019-Oct-27 00:30N 34°20' W 120°04'917.7
2019-Oct-26 23:59N 34°22' W 120°15'208 6.9
2019-Oct-25 17:51N 37°19' W 122°29'719.9
2019-Oct-25 17:30N 37°26' W 122°31'1019.3
2019-Oct-25 16:58N 37°36' W 122°33'919.0
2019-Oct-25 16:30N 37°45' W 122°32'714.3
2019-Oct-25 16:01N 37°51' W 122°28'1 0.1
2019-Oct-25 02:36N 37°52' W 122°30'0 0.4
2019-Oct-25 02:31N 37°52' W 122°30'0 0.1
2019-Oct-25 02:01N 37°52' W 122°30'2 3.9
2019-Oct-25 01:31N 37°50' W 122°28'1118.1
2019-Oct-25 00:54N 37°50' W 122°42'1019.0
2019-Oct-25 00:23N 37°50' W 122°54'717.5
2019-Oct-25 00:00N 37°51' W 123°03'1912.1
2019-Oct-24 22:28N 37°52' W 123°26'0 0.7
2019-Oct-24 21:45N 37°53' W 123°26'1 0.5
2019-Oct-24 20:42N 37°52' W 123°26'15 3.7
2019-Oct-24 16:44N 37°51' W 123°07'418.1
2019-Oct-24 16:30N 37°51' W 123°02'1618.2
2019-Oct-24 15:38N 37°49' W 122°42'318.0
2019-Oct-24 15:27N 37°49' W 122°38'716.4
2019-Oct-24 15:01N 37°49' W 122°29'3 5.1
2019-Oct-24 14:31N 37°52' W 122°30'0 0.0
2019-Oct-24 14:00N 37°52' W 122°30'0 0.0
2019-Oct-23 23:19N 37°52' W 122°30'0 0.2
2019-Oct-23 23:00N 37°52' W 122°30'0 0.0
2019-Oct-23 22:30N 37°52' W 122°30'0 0.0
2019-Oct-23 22:00N 37°52' W 122°30'0 0.0
2019-Oct-23 21:31N 37°52' W 122°30'0 0.1
2019-Oct-23 21:00N 37°52' W 122°30'0 0.0
2019-Oct-23 20:30N 37°52' W 122°30'0 0.0
2019-Oct-23 20:00N 37°52' W 122°30'5 9.1
2019-Oct-23 19:30N 37°49' W 122°25'0 0.6
2019-Oct-23 19:01N 37°49' W 122°25'1 2.4
2019-Oct-23 18:31N 37°48' W 122°24'2 4.9
2019-Oct-23 18:00N 37°50' W 122°26'3 6.9
2019-Oct-23 17:30N 37°52' W 122°30'0 0.0
2019-Oct-23 17:01N 37°52' W 122°30'0 0.0
2019-Oct-23 01:05N 37°52' W 122°30'0 0.0
2019-Oct-23 01:01N 37°52' W 122°30'4 7.9
2019-Oct-23 00:31N 37°48' W 122°30'916.5
2019-Oct-22 23:58N 37°39' W 122°33'816.4
2019-Oct-22 23:30N 37°32' W 122°33'816.0
2019-Oct-22 23:00N 37°24' W 122°30'  
Track history (hours):
 
Tides and Currents Weather Stations Pressure Air Temp Water Temp Dewpoint Dewpoint Depression Visibility Wind Speed Wind Dir Waves Ship Positions

Oceanographic research ship Fulmar (United States)

Owner: NOAA R/V Fulmar, Monterey, CA. More information available from US FCC via Universal Licensing System.

Last reported at 2019-Oct-27 02:30 UTC. Time now 2019-Dec-11 10:41 UTC.
Position N 34°14' W 119°24'.
Warning: this ship's position is 45 days out of date.

Length 20 m; draft 2 m.

Type: Ship. MMSI: 367139040.

Date/timePositionNaut miles runAvg speedWind from/ knotsBaromVisibWave heightAir tempDewpointWater temp
2019-Oct-27 02:30N 34°14' W 119°24'1019.6
2019-Oct-27 02:00N 34°15' W 119°36'1019.3
2019-Oct-27 01:30N 34°15' W 119°48'1019.6
2019-Oct-27 01:00N 34°15' W 119°59'611.1
2019-Oct-27 00:30N 34°20' W 120°04'917.7
2019-Oct-26 23:59N 34°22' W 120°15'208 6.9
2019-Oct-25 17:51N 37°19' W 122°29'719.9
2019-Oct-25 17:30N 37°26' W 122°31'1019.3
2019-Oct-25 16:58N 37°36' W 122°33'919.0
2019-Oct-25 16:30N 37°45' W 122°32'714.3
2019-Oct-25 16:01N 37°51' W 122°28'1 0.1
2019-Oct-25 02:36N 37°52' W 122°30'0 0.4
2019-Oct-25 02:31N 37°52' W 122°30'0 0.1
2019-Oct-25 02:01N 37°52' W 122°30'2 3.9
2019-Oct-25 01:31N 37°50' W 122°28'1118.1
2019-Oct-25 00:54N 37°50' W 122°42'1019.0
2019-Oct-25 00:23N 37°50' W 122°54'717.5
2019-Oct-25 00:00N 37°51' W 123°03'1912.1
2019-Oct-24 22:28N 37°52' W 123°26'0 0.7
2019-Oct-24 21:45N 37°53' W 123°26'1 0.5
2019-Oct-24 20:42N 37°52' W 123°26'15 3.7
2019-Oct-24 16:44N 37°51' W 123°07'418.1
2019-Oct-24 16:30N 37°51' W 123°02'1618.2
2019-Oct-24 15:38N 37°49' W 122°42'318.0
2019-Oct-24 15:27N 37°49' W 122°38'716.4
2019-Oct-24 15:01N 37°49' W 122°29'3 5.1
2019-Oct-24 14:31N 37°52' W 122°30'0 0.0
2019-Oct-24 14:00N 37°52' W 122°30'0 0.0
2019-Oct-23 23:19N 37°52' W 122°30'0 0.2
2019-Oct-23 23:00N 37°52' W 122°30'0 0.0
2019-Oct-23 22:30N 37°52' W 122°30'0 0.0
2019-Oct-23 22:00N 37°52' W 122°30'0 0.0
2019-Oct-23 21:31N 37°52' W 122°30'0 0.1
2019-Oct-23 21:00N 37°52' W 122°30'0 0.0
2019-Oct-23 20:30N 37°52' W 122°30'0 0.0
2019-Oct-23 20:00N 37°52' W 122°30'5 9.1
2019-Oct-23 19:30N 37°49' W 122°25'0 0.6
2019-Oct-23 19:01N 37°49' W 122°25'1 2.4
2019-Oct-23 18:31N 37°48' W 122°24'2 4.9
2019-Oct-23 18:00N 37°50' W 122°26'3 6.9
2019-Oct-23 17:30N 37°52' W 122°30'0 0.0
2019-Oct-23 17:01N 37°52' W 122°30'0 0.0
2019-Oct-23 01:05N 37°52' W 122°30'0 0.0
2019-Oct-23 01:01N 37°52' W 122°30'4 7.9
2019-Oct-23 00:31N 37°48' W 122°30'916.5
2019-Oct-22 23:58N 37°39' W 122°33'816.4
2019-Oct-22 23:30N 37°32' W 122°33'816.0
2019-Oct-22 23:00N 37°24' W 122°30'  

Dump ship's entire track history